Time;durP1;ratioP1;P1;durP2;ratioP2;P2;SDS_P1;SDS_P2;PMS_P1;PMS_P2;Temp;Humidity;BMP_temperature;BMP_pressure;BME280_temperature;BME280_humidity;BME280_pressure;Samples;Min_cycle;Max_cycle;Signal;HPM_P1;HPM_P2
2021/07/09 00:01:48;;;;;;;2.1;1.3;;;;;;;;;;;;;
2021/07/09 00:04:15;;;;;;;1.8;1.4;;;;;;;;;;;;;
2021/07/09 00:06:38;;;;;;;4.2;1.9;;;;;;;;;;;;;
2021/07/09 00:09:05;;;;;;;2.1;1.9;;;;;;;;;;;;;
2021/07/09 00:11:30;;;;;;;5;2;;;;;;;;;;;;;
2021/07/09 00:13:56;;;;;;;4;1.8;;;;;;;;;;;;;
2021/07/09 00:16:21;;;;;;;3.4;1.6;;;;;;;;;;;;;
2021/07/09 00:18:47;;;;;;;4.4;1.7;;;;;;;;;;;;;
2021/07/09 00:21:12;;;;;;;2.5;1.4;;;;;;;;;;;;;
2021/07/09 00:23:38;;;;;;;2.9;1.5;;;;;;;;;;;;;
2021/07/09 00:26:03;;;;;;;2.2;1.8;;;;;;;;;;;;;
2021/07/09 00:28:28;;;;;;;1.9;1.8;;;;;;;;;;;;;
2021/07/09 00:30:53;;;;;;;3.4;2.1;;;;;;;;;;;;;
2021/07/09 00:33:19;;;;;;;4.2;2;;;;;;;;;;;;;
2021/07/09 00:35:44;;;;;;;3.8;2;;;;;;;;;;;;;
2021/07/09 00:38:11;;;;;;;3.3;2;;;;;;;;;;;;;
2021/07/09 00:40:36;;;;;;;2.9;1.8;;;;;;;;;;;;;
2021/07/09 00:43:03;;;;;;;4.5;1.9;;;;;;;;;;;;;
2021/07/09 00:45:28;;;;;;;2.2;1.7;;;;;;;;;;;;;
2021/07/09 00:47:53;;;;;;;2.7;1.7;;;;;;;;;;;;;
2021/07/09 00:50:18;;;;;;;2.2;1.4;;;;;;;;;;;;;
2021/07/09 00:52:44;;;;;;;1.6;1.4;;;;;;;;;;;;;
2021/07/09 00:55:09;;;;;;;1.7;1.5;;;;;;;;;;;;;
2021/07/09 00:57:34;;;;;;;1.5;1.4;;;;;;;;;;;;;
2021/07/09 00:59:59;;;;;;;2.5;1.3;;;;;;;;;;;;;
2021/07/09 01:02:25;;;;;;;2;1.5;;;;;;;;;;;;;
2021/07/09 01:04:51;;;;;;;1.8;1.6;;;;;;;;;;;;;
2021/07/09 01:07:15;;;;;;;1.7;1.6;;;;;;;;;;;;;
2021/07/09 01:09:40;;;;;;;2.9;1.9;;;;;;;;;;;;;
2021/07/09 01:12:05;;;;;;;2.7;1.6;;;;;;;;;;;;;
2021/07/09 01:14:30;;;;;;;2.3;1.5;;;;;;;;;;;;;
2021/07/09 01:16:55;;;;;;;3;2;;;;;;;;;;;;;
2021/07/09 01:19:21;;;;;;;3.7;2;;;;;;;;;;;;;
2021/07/09 01:21:46;;;;;;;2.8;1.7;;;;;;;;;;;;;
2021/07/09 01:24:14;;;;;;;1.5;1.4;;;;;;;;;;;;;
2021/07/09 01:26:39;;;;;;;1.9;1.7;;;;;;;;;;;;;
2021/07/09 01:29:04;;;;;;;3;1.7;;;;;;;;;;;;;
2021/07/09 01:31:29;;;;;;;1.7;1.6;;;;;;;;;;;;;
2021/07/09 01:33:54;;;;;;;3.6;1.5;;;;;;;;;;;;;
2021/07/09 01:39:05;;;;;;;1.9;1.8;;;;;;;;;;;;;
2021/07/09 01:41:30;;;;;;;3.2;1.8;;;;;;;;;;;;;
2021/07/09 01:43:55;;;;;;;3.1;1.6;;;;;;;;;;;;;
2021/07/09 01:46:21;;;;;;;2.3;1.7;;;;;;;;;;;;;
2021/07/09 01:48:47;;;;;;;3.6;2.2;;;;;;;;;;;;;
2021/07/09 01:51:12;;;;;;;2.3;2.1;;;;;;;;;;;;;
2021/07/09 01:53:37;;;;;;;2.5;2.1;;;;;;;;;;;;;
2021/07/09 01:56:02;;;;;;;2.4;2.2;;;;;;;;;;;;;
2021/07/09 01:58:27;;;;;;;2.8;2.1;;;;;;;;;;;;;
2021/07/09 02:00:52;;;;;;;3.4;1.9;;;;;;;;;;;;;
2021/07/09 02:03:18;;;;;;;4.2;2;;;;;;;;;;;;;
2021/07/09 02:05:43;;;;;;;1.6;1.5;;;;;;;;;;;;;
2021/07/09 02:08:09;;;;;;;2.2;1.4;;;;;;;;;;;;;
2021/07/09 02:10:34;;;;;;;2.1;1.6;;;;;;;;;;;;;
2021/07/09 02:13:01;;;;;;;3.7;2;;;;;;;;;;;;;
2021/07/09 02:15:26;;;;;;;3.4;1.8;;;;;;;;;;;;;
2021/07/09 02:17:53;;;;;;;1.4;1.3;;;;;;;;;;;;;
2021/07/09 02:20:18;;;;;;;2.1;1.2;;;;;;;;;;;;;
2021/07/09 02:22:44;;;;;;;3.1;2;;;;;;;;;;;;;
2021/07/09 02:25:12;;;;;;;2.4;1.7;;;;;;;;;;;;;
2021/07/09 02:27:37;;;;;;;3.2;1.8;;;;;;;;;;;;;
2021/07/09 02:30:02;;;;;;;3.5;1.6;;;;;;;;;;;;;
2021/07/09 02:32:27;;;;;;;3.3;1.5;;;;;;;;;;;;;
2021/07/09 02:34:53;;;;;;;2.7;1.3;;;;;;;;;;;;;
2021/07/09 02:37:18;;;;;;;3.8;1.4;;;;;;;;;;;;;
2021/07/09 02:39:43;;;;;;;3.5;1.6;;;;;;;;;;;;;
2021/07/09 02:42:09;;;;;;;4;2;;;;;;;;;;;;;
2021/07/09 02:44:34;;;;;;;3.9;1.7;;;;;;;;;;;;;
2021/07/09 02:47:00;;;;;;;2.6;1.4;;;;;;;;;;;;;
2021/07/09 02:49:25;;;;;;;2.8;2.3;;;;;;;;;;;;;
2021/07/09 02:51:51;;;;;;;3.8;1.5;;;;;;;;;;;;;
2021/07/09 02:54:16;;;;;;;3.1;1.2;;;;;;;;;;;;;
2021/07/09 02:56:42;;;;;;;2.5;1.2;;;;;;;;;;;;;
2021/07/09 02:59:07;;;;;;;3.6;1.5;;;;;;;;;;;;;
2021/07/09 03:01:33;;;;;;;2;1.5;;;;;;;;;;;;;
2021/07/09 03:03:58;;;;;;;1.5;1.2;;;;;;;;;;;;;
2021/07/09 03:06:25;;;;;;;1.4;1.2;;;;;;;;;;;;;
2021/07/09 03:08:50;;;;;;;1.3;1.2;;;;;;;;;;;;;
2021/07/09 03:11:15;;;;;;;3.9;1.7;;;;;;;;;;;;;
2021/07/09 03:13:40;;;;;;;3.1;1.4;;;;;;;;;;;;;
2021/07/09 03:16:11;;;;;;;2.1;1.5;;;;;;;;;;;;;
2021/07/09 03:18:36;;;;;;;2.2;1.3;;;;;;;;;;;;;
2021/07/09 03:21:02;;;;;;;2.8;1.3;;;;;;;;;;;;;
2021/07/09 03:23:27;;;;;;;2.6;1.4;;;;;;;;;;;;;
2021/07/09 03:25:52;;;;;;;2.1;1.5;;;;;;;;;;;;;
2021/07/09 03:28:19;;;;;;;1.9;1.5;;;;;;;;;;;;;
2021/07/09 03:30:44;;;;;;;1.9;1.5;;;;;;;;;;;;;
2021/07/09 03:33:09;;;;;;;3.1;1.4;;;;;;;;;;;;;
2021/07/09 03:35:35;;;;;;;2.3;1.4;;;;;;;;;;;;;
2021/07/09 03:38:00;;;;;;;2.3;1.6;;;;;;;;;;;;;
2021/07/09 03:40:25;;;;;;;3.5;1.5;;;;;;;;;;;;;
2021/07/09 03:42:52;;;;;;;3.9;1.6;;;;;;;;;;;;;
2021/07/09 03:45:21;;;;;;;1.6;1.3;;;;;;;;;;;;;
2021/07/09 03:47:43;;;;;;;3.2;1.6;;;;;;;;;;;;;
2021/07/09 03:50:09;;;;;;;2.7;1.8;;;;;;;;;;;;;
2021/07/09 03:52:34;;;;;;;2.9;1.8;;;;;;;;;;;;;
2021/07/09 03:54:59;;;;;;;2.1;1.3;;;;;;;;;;;;;
2021/07/09 03:57:24;;;;;;;2.2;1.4;;;;;;;;;;;;;
2021/07/09 03:59:50;;;;;;;2.4;1.4;;;;;;;;;;;;;
2021/07/09 04:02:30;;;;;;;3;1.4;;;;;;;14.01;97.54199;941.3123;;;;
2021/07/09 04:04:55;;;;;;;3.9;1.7;;;;;;;13.97;96.47266;941.3627;;;;
2021/07/09 04:07:22;;;;;;;1.4;1.2;;;;;;;13.96;97.48535;941.3323;;;;
2021/07/09 04:09:47;;;;;;;1.9;1.1;;;;;;;14.03;97.64941;941.3807;;;;
2021/07/09 04:12:13;;;;;;;2;1.3;;;;;;;14.1;97.41211;941.3728;;;;
2021/07/09 04:14:39;;;;;;;2.5;1.4;;;;;;;14.22;96.48535;941.4052;;;;
2021/07/09 04:17:04;;;;;;;3.2;1.5;;;;;;;14.18;96.83203;941.3969;;;;
2021/07/09 04:19:30;;;;;;;2.7;1.1;;;;;;;14.23;96.4873;941.4524;;;;
2021/07/09 04:21:55;;;;;;;1.8;1.1;;;;;;;14.17;97.44043;941.4265;;;;
2021/07/09 04:24:24;;;;;;;2.2;1.3;;;;;;;13.96;98.10547;941.4644;;;;
2021/07/09 04:26:49;;;;;;;1.8;1.4;;;;;;;13.95;98.47168;941.4972;;;;
2021/07/09 04:29:17;;;;;;;2.1;1.2;;;;;;;14.15;97.16016;941.5298;;;;
2021/07/09 04:31:47;;;;;;;2.4;1.4;;;;;;;14.18;95.8418;941.3953;;;;
2021/07/09 04:34:12;;;;;;;2.4;1.4;;;;;;;14.32;96;941.527;;;;
2021/07/09 04:36:38;;;;;;;1.5;1.2;;;;;;;14.42;96.27344;941.5449;;;;
2021/07/09 04:39:03;;;;;;;1.8;1.2;;;;;;;14.49;96.05664;941.5067;;;;
2021/07/09 04:41:29;;;;;;;3.3;1.3;;;;;;;14.59;96.06934;941.4786;;;;
2021/07/09 04:43:54;;;;;;;2.2;1;;;;;;;14.63;95.05371;941.4316;;;;
2021/07/09 04:46:21;;;;;;;2.3;0.9;;;;;;;14.6;95.12793;941.5178;;;;
2021/07/09 04:48:47;;;;;;;2.8;1.1;;;;;;;14.77;95.04785;941.4546;;;;
2021/07/09 04:51:13;;;;;;;0.9;0.9;;;;;;;14.77;93.89551;941.5444;;;;
2021/07/09 04:53:38;;;;;;;3.2;1.3;;;;;;;14.84;94.54492;941.5302;;;;
2021/07/09 04:56:07;;;;;;;1.6;1;;;;;;;14.96;93.2002;941.5845;;;;
2021/07/09 04:58:32;;;;;;;1.2;1.1;;;;;;;15.03;92.82324;941.5773;;;;
2021/07/09 05:01:00;;;;;;;2.2;1.2;;;;;;;15.08;93.22266;941.5717;;;;
2021/07/09 05:03:25;;;;;;;1.2;1.1;;;;;;;15.2;92.87891;941.6275;;;;
2021/07/09 05:05:53;;;;;;;2.2;0.9;;;;;;;15.23;91.96289;941.6799;;;;
2021/07/09 05:08:22;;;;;;;3.1;1.3;;;;;;;15.35;91.43555;941.6649;;;;
2021/07/09 05:10:47;;;;;;;1.9;1.1;;;;;;;15.3;91.30859;941.7277;;;;
2021/07/09 05:13:16;;;;;;;1.2;1.1;;;;;;;15.27;89.57129;941.7687;;;;
2021/07/09 05:15:50;;;;;;;3.3;1.4;;;;;;;15.28;91.90527;941.7222;;;;
2021/07/09 05:18:15;;;;;;;1.8;1;;;;;;;15.39;91.63965;941.7427;;;;
2021/07/09 05:20:46;;;;;;;2.6;1.5;;;;;;;15.42;90.00684;941.6898;;;;
2021/07/09 05:23:13;;;;;;;1.9;1.2;;;;;;;15.42;90.4668;941.7445;;;;
2021/07/09 05:25:38;;;;;;;1.7;1.2;;;;;;;15.46;89.91992;941.7933;;;;
2021/07/09 05:28:08;;;;;;;1.8;1.4;;;;;;;15.46;90.70605;941.7852;;;;
2021/07/09 05:30:41;;;;;;;3.3;1.3;;;;;;;15.49;89.88184;941.7916;;;;
2021/07/09 05:33:37;;;;;;;2.4;1;;;;;;;15.44;90.27637;941.8094;;;;
2021/07/09 05:36:07;;;;;;;1.8;1.1;;;;;;;15.43;91.4502;941.7878;;;;
2021/07/09 05:38:37;;;;;;;2.4;1.2;;;;;;;15.47;92.32617;941.7957;;;;
2021/07/09 05:41:02;;;;;;;1.6;1.2;;;;;;;15.45;93.82324;941.8053;;;;
2021/07/09 05:43:29;;;;;;;2.8;1.6;;;;;;;15.55;93.18652;941.8017;;;;
2021/07/09 05:45:54;;;;;;;3;1.1;;;;;;;15.63;91.44629;941.8406;;;;
2021/07/09 05:48:21;;;;;;;1.5;1.1;;;;;;;15.77;91.90332;941.8448;;;;
2021/07/09 05:50:46;;;;;;;2.9;1.6;;;;;;;15.8;92.00195;941.7828;;;;
2021/07/09 05:53:14;;;;;;;2.6;1.5;;;;;;;15.85;90.46484;941.8575;;;;
2021/07/09 05:55:41;;;;;;;2.1;1.4;;;;;;;15.76;91.58789;941.9122;;;;
2021/07/09 05:58:06;;;;;;;2;1.2;;;;;;;15.83;92.13672;941.9258;;;;
2021/07/09 06:00:41;;;;;;;2.3;1.5;;;;;;;15.64;92.95117;942.0179;;;;
2021/07/09 06:03:09;;;;;;;1.8;0.9;;;;;;;15.45;93.64844;942.0301;;;;
2021/07/09 06:05:34;;;;;;;1;0.8;;;;;;;15.56;92.56445;942.11;;;;
2021/07/09 06:08:01;;;;;;;2;0.9;;;;;;;15.54;93.17285;942.1509;;;;
2021/07/09 06:10:26;;;;;;;1.2;1;;;;;;;15.57;93.39844;942.1853;;;;
2021/07/09 06:12:56;;;;;;;1.5;1.4;;;;;;;15.68;92.60059;942.2883;;;;
2021/07/09 06:15:42;;;;;;;1.2;1.2;;;;;;;15.72;91.90527;942.3226;;;;
2021/07/09 06:18:12;;;;;;;1.6;1.4;;;;;;;15.79;91.41016;942.3617;;;;
2021/07/09 06:20:40;;;;;;;1.5;1.4;;;;;;;15.84;91.87305;942.4165;;;;
2021/07/09 06:23:06;;;;;;;2;1.4;;;;;;;15.82;91.74023;942.3869;;;;
2021/07/09 06:25:38;;;;;;;2.1;1.5;;;;;;;15.93;91.20801;942.3936;;;;
2021/07/09 06:28:09;;;;;;;1.7;1.3;;;;;;;15.94;90.30762;942.4249;;;;
2021/07/09 06:30:41;;;;;;;2;1.5;;;;;;;16.01;89.86035;942.4309;;;;
2021/07/09 06:33:10;;;;;;;4.1;1.2;;;;;;;16.02;90.40527;942.5016;;;;
2021/07/09 06:35:35;;;;;;;1.8;1.4;;;;;;;16.06;90.81934;942.4567;;;;
2021/07/09 06:38:00;;;;;;;4;1.3;;;;;;;15.99;90.87402;942.521;;;;
2021/07/09 06:40:25;;;;;;;1.7;1.2;;;;;;;16.13;90.47559;942.5037;;;;
2021/07/09 06:42:51;;;;;;;1.5;1.2;;;;;;;16.17;90.25195;942.5413;;;;
2021/07/09 06:45:16;;;;;;;2.2;1.2;;;;;;;16.19;90.05957;942.5806;;;;
2021/07/09 06:47:44;;;;;;;1.4;1.2;;;;;;;16.06;91.17773;942.5909;;;;
2021/07/09 06:50:10;;;;;;;1.5;1.1;;;;;;;15.84;92.21777;942.6606;;;;
2021/07/09 06:52:40;;;;;;;1.2;1.1;;;;;;;16.02;89.70215;942.673;;;;
2021/07/09 06:55:10;;;;;;;1.5;0.9;;;;;;;16.01;89.89453;942.6631;;;;
2021/07/09 06:57:35;;;;;;;1.2;1;;;;;;;16.09;89.4043;942.6517;;;;
2021/07/09 07:00:01;;;;;;;1.4;1.1;;;;;;;16.19;89.26074;942.6562;;;;
2021/07/09 07:02:26;;;;;;;2.1;1.2;;;;;;;16.37;89.26367;942.6707;;;;
2021/07/09 07:04:53;;;;;;;3.9;1.4;;;;;;;16.08;89.00781;942.6599;;;;
2021/07/09 07:07:18;;;;;;;1.5;1.1;;;;;;;16.12;90.06934;942.7031;;;;
2021/07/09 07:09:46;;;;;;;1.3;0.8;;;;;;;16.12;86.56348;942.7119;;;;
2021/07/09 07:12:11;;;;;;;1.7;0.9;;;;;;;16.27;86.95215;942.7291;;;;
2021/07/09 07:14:38;;;;;;;0.5;0.5;;;;;;;16.25;83.68652;942.7172;;;;
2021/07/09 07:17:08;;;;;;;0.9;0.5;;;;;;;16.33;86.12012;942.7079;;;;
2021/07/09 07:19:33;;;;;;;1.5;0.7;;;;;;;16.21;85.88672;942.7332;;;;
2021/07/09 07:22:02;;;;;;;1.1;0.7;;;;;;;16.41;84.89746;942.7605;;;;
2021/07/09 07:24:23;;;;;;;1.2;0.7;;;;;;;16.55;83.7666;942.764;;;;
2021/07/09 07:26:51;;;;;;;1.5;0.8;;;;;;;16.5;83.60742;942.7747;;;;
2021/07/09 07:29:17;;;;;;;2.2;0.8;;;;;;;16.5;83.79297;942.8358;;;;
2021/07/09 07:31:42;;;;;;;1.2;0.8;;;;;;;16.5;84.56641;942.8045;;;;
2021/07/09 07:34:07;;;;;;;1.4;0.5;;;;;;;16.58;81.96582;942.8522;;;;
2021/07/09 07:36:35;;;;;;;0.9;0.5;;;;;;;16.47;85.37109;942.869;;;;
2021/07/09 07:39:00;;;;;;;0.6;0.4;;;;;;;16.57;81.79004;942.9214;;;;
2021/07/09 07:41:26;;;;;;;1.1;0.5;;;;;;;16.61;83.88281;942.8978;;;;
2021/07/09 07:43:51;;;;;;;1.6;0.7;;;;;;;16.61;83.1416;942.8947;;;;
2021/07/09 07:46:18;;;;;;;2.5;0.8;;;;;;;16.63;82.2998;942.9841;;;;
2021/07/09 07:48:43;;;;;;;1.9;0.7;;;;;;;16.57;84.2793;942.96;;;;
2021/07/09 07:51:09;;;;;;;1.4;0.7;;;;;;;16.59;84.08789;943.0033;;;;
2021/07/09 07:53:41;;;;;;;0.7;0.4;;;;;;;16.46;81.7373;942.9744;;;;
2021/07/09 07:55:59;;;;;;;1.8;1;;;;;;;16.37;83.98633;943.0236;;;;
2021/07/09 07:58:25;;;;;;;1.6;0.8;;;;;;;16.4;86.5957;943.025;;;;
2021/07/09 08:00:50;;;;;;;0.9;0.8;;;;;;;16.42;86.72852;943.022;;;;
2021/07/09 08:03:15;;;;;;;3;0.8;;;;;;;;;;;;;
2021/07/09 08:05:40;;;;;;;0.8;0.6;;;;;;;;;;;;;
2021/07/09 08:08:05;;;;;;;0.5;0.4;;;;;;;;;;;;;
2021/07/09 08:10:30;;;;;;;1.7;0.7;;;;;;;;;;;;;
2021/07/09 08:12:55;;;;;;;0.7;0.6;;;;;;;;;;;;;
2021/07/09 08:15:20;;;;;;;3.2;1;;;;;;;;;;;;;
2021/07/09 08:17:47;;;;;;;0.8;0.5;;;;;;;;;;;;;
2021/07/09 08:20:12;;;;;;;1.2;0.8;;;;;;;;;;;;;
2021/07/09 08:22:38;;;;;;;1.5;0.6;;;;;;;;;;;;;
2021/07/09 08:25:03;;;;;;;1.5;0.8;;;;;;;;;;;;;
2021/07/09 08:27:29;;;;;;;1.4;0.6;;;;;;;;;;;;;
2021/07/09 08:29:54;;;;;;;2.9;0.7;;;;;;;;;;;;;
2021/07/09 08:32:20;;;;;;;2.4;1;;;;;;;;;;;;;
2021/07/09 08:34:45;;;;;;;1;0.8;;;;;;;;;;;;;
2021/07/09 08:37:11;;;;;;;1;0.6;;;;;;;;;;;;;
2021/07/09 08:39:36;;;;;;;1;0.6;;;;;;;;;;;;;
2021/07/09 08:42:03;;;;;;;1.3;0.6;;;;;;;;;;;;;
2021/07/09 08:44:28;;;;;;;0.9;0.5;;;;;;;;;;;;;
2021/07/09 08:46:53;;;;;;;1.6;0.7;;;;;;;;;;;;;
2021/07/09 08:49:19;;;;;;;1.4;0.6;;;;;;;;;;;;;
2021/07/09 08:51:45;;;;;;;1.1;0.7;;;;;;;;;;;;;
2021/07/09 08:54:10;;;;;;;1.1;0.7;;;;;;;;;;;;;
2021/07/09 08:56:36;;;;;;;0.8;0.7;;;;;;;;;;;;;
2021/07/09 08:59:01;;;;;;;0.8;0.6;;;;;;;;;;;;;
2021/07/09 09:01:27;;;;;;;0.5;0.5;;;;;;;;;;;;;
2021/07/09 09:03:52;;;;;;;1.9;0.7;;;;;;;;;;;;;
2021/07/09 09:06:17;;;;;;;1.3;0.6;;;;;;;;;;;;;
2021/07/09 09:08:42;;;;;;;1.9;0.6;;;;;;;;;;;;;
2021/07/09 09:11:07;;;;;;;1.4;0.8;;;;;;;;;;;;;
2021/07/09 09:13:33;;;;;;;2.1;0.7;;;;;;;;;;;;;
2021/07/09 09:15:59;;;;;;;1.6;0.9;;;;;;;;;;;;;
2021/07/09 09:18:26;;;;;;;0.8;0.7;;;;;;;;;;;;;
2021/07/09 09:20:51;;;;;;;0.9;0.7;;;;;;;;;;;;;
2021/07/09 09:23:17;;;;;;;2.7;0.6;;;;;;;;;;;;;
2021/07/09 09:25:42;;;;;;;1.3;0.9;;;;;;;;;;;;;
2021/07/09 09:28:08;;;;;;;0.6;0.6;;;;;;;;;;;;;
2021/07/09 09:30:33;;;;;;;1;0.5;;;;;;;;;;;;;
2021/07/09 09:32:58;;;;;;;1.1;0.6;;;;;;;;;;;;;
2021/07/09 09:35:23;;;;;;;0.7;0.5;;;;;;;;;;;;;
2021/07/09 09:37:49;;;;;;;0.7;0.7;;;;;;;;;;;;;
2021/07/09 09:40:14;;;;;;;2.3;0.6;;;;;;;;;;;;;
2021/07/09 09:42:40;;;;;;;1.8;0.6;;;;;;;;;;;;;
2021/07/09 09:45:05;;;;;;;0.9;0.7;;;;;;;;;;;;;
2021/07/09 09:47:31;;;;;;;1.6;0.7;;;;;;;;;;;;;
2021/07/09 09:49:56;;;;;;;1.8;0.7;;;;;;;;;;;;;
2021/07/09 09:52:21;;;;;;;1;0.7;;;;;;;;;;;;;
2021/07/09 09:54:47;;;;;;;0.9;0.4;;;;;;;;;;;;;
2021/07/09 09:57:12;;;;;;;0.6;0.6;;;;;;;;;;;;;
2021/07/09 09:59:37;;;;;;;0.5;0.5;;;;;;;;;;;;;
2021/07/09 10:02:03;;;;;;;0.5;0.5;;;;;;;;;;;;;
2021/07/09 10:04:36;;;;;;;0.6;0.6;;;;;;;;;;;;;
2021/07/09 10:06:52;;;;;;;0.6;0.6;;;;;;;;;;;;;
2021/07/09 10:09:17;;;;;;;1.9;0.8;;;;;;;;;;;;;
2021/07/09 10:11:42;;;;;;;0.7;0.7;;;;;;;;;;;;;
2021/07/09 10:14:08;;;;;;;0.8;0.5;;;;;;;;;;;;;
2021/07/09 10:16:34;;;;;;;0.6;0.6;;;;;;;;;;;;;
2021/07/09 10:18:59;;;;;;;0.5;0.5;;;;;;;;;;;;;
2021/07/09 10:21:24;;;;;;;1;0.9;;;;;;;;;;;;;
2021/07/09 10:23:49;;;;;;;2.6;0.8;;;;;;;;;;;;;
2021/07/09 10:26:15;;;;;;;0.7;0.7;;;;;;;;;;;;;
2021/07/09 10:28:40;;;;;;;1.1;0.7;;;;;;;;;;;;;
2021/07/09 10:31:05;;;;;;;1.3;0.9;;;;;;;;;;;;;
2021/07/09 10:33:31;;;;;;;0.8;0.8;;;;;;;;;;;;;
2021/07/09 10:35:56;;;;;;;0.6;0.6;;;;;;;;;;;;;
2021/07/09 10:38:22;;;;;;;0.8;0.5;;;;;;;;;;;;;
2021/07/09 10:40:46;;;;;;;1.1;0.6;;;;;;;;;;;;;
2021/07/09 10:43:11;;;;;;;1.6;0.7;;;;;;;;;;;;;
2021/07/09 10:45:37;;;;;;;1.9;0.6;;;;;;;;;;;;;
2021/07/09 10:48:02;;;;;;;1.7;0.8;;;;;;;;;;;;;
2021/07/09 10:50:27;;;;;;;1.8;0.9;;;;;;;;;;;;;
2021/07/09 10:52:53;;;;;;;3.3;1;;;;;;;;;;;;;
2021/07/09 10:55:17;;;;;;;2.3;0.9;;;;;;;;;;;;;
2021/07/09 10:57:43;;;;;;;1.2;0.7;;;;;;;;;;;;;
2021/07/09 11:00:08;;;;;;;1.3;0.7;;;;;;;;;;;;;
2021/07/09 11:02:33;;;;;;;0.6;0.6;;;;;;;;;;;;;
2021/07/09 11:04:59;;;;;;;0.6;0.6;;;;;;;;;;;;;
2021/07/09 11:07:24;;;;;;;1.5;0.7;;;;;;;;;;;;;
2021/07/09 11:09:49;;;;;;;2.1;0.6;;;;;;;;;;;;;
2021/07/09 11:14:43;;;;;;;0.9;0.7;;;;;;;;;;;;;
2021/07/09 11:17:09;;;;;;;1.2;0.7;;;;;;;;;;;;;
2021/07/09 11:19:34;;;;;;;0.8;0.7;;;;;;;;;;;;;
2021/07/09 11:21:59;;;;;;;0.8;0.7;;;;;;;;;;;;;
2021/07/09 11:24:24;;;;;;;1.2;0.8;;;;;;;;;;;;;
2021/07/09 11:26:49;;;;;;;0.7;0.7;;;;;;;;;;;;;
2021/07/09 11:29:15;;;;;;;1.3;1.1;;;;;;;;;;;;;
2021/07/09 11:31:40;;;;;;;1.3;1.1;;;;;;;;;;;;;
2021/07/09 11:34:05;;;;;;;1.4;1.3;;;;;;;;;;;;;
2021/07/09 11:36:30;;;;;;;2.6;1.2;;;;;;;;;;;;;
2021/07/09 11:38:55;;;;;;;1.8;1.5;;;;;;;;;;;;;
2021/07/09 11:41:20;;;;;;;2.4;1.1;;;;;;;;;;;;;
2021/07/09 11:43:47;;;;;;;1.7;1.1;;;;;;;;;;;;;
2021/07/09 11:46:12;;;;;;;1.8;0.8;;;;;;;;;;;;;
2021/07/09 11:48:37;;;;;;;2.3;1;;;;;;;;;;;;;
2021/07/09 11:51:03;;;;;;;2.3;1.3;;;;;;;;;;;;;
2021/07/09 11:53:28;;;;;;;1.2;1;;;;;;;;;;;;;
2021/07/09 11:55:54;;;;;;;0.9;0.9;;;;;;;;;;;;;
2021/07/09 11:58:19;;;;;;;1.4;1;;;;;;;;;;;;;
2021/07/09 12:00:44;;;;;;;0.8;0.8;;;;;;;;;;;;;
2021/07/09 12:03:11;;;;;;;1;0.9;;;;;;;;;;;;;
2021/07/09 12:05:36;;;;;;;1.4;1;;;;;;;;;;;;;
2021/07/09 12:08:02;;;;;;;4;1.2;;;;;;;;;;;;;
2021/07/09 12:10:28;;;;;;;1.2;0.9;;;;;;;;;;;;;
2021/07/09 12:12:52;;;;;;;1.2;1.1;;;;;;;;;;;;;
2021/07/09 12:15:18;;;;;;;1.1;1;;;;;;;;;;;;;
2021/07/09 12:17:45;;;;;;;2.8;2.6;;;;;;;;;;;;;
2021/07/09 12:20:10;;;;;;;1.4;1.3;;;;;;;;;;;;;
2021/07/09 12:22:55;;;;;;;4.1;1.4;;;;;;;;;;;;;
2021/07/09 12:25:20;;;;;;;1;1;;;;;;;;;;;;;
2021/07/09 12:27:45;;;;;;;1.3;1.2;;;;;;;;;;;;;
2021/07/09 12:30:10;;;;;;;1.6;1.4;;;;;;;;;;;;;
2021/07/09 12:32:35;;;;;;;1.6;1.1;;;;;;;;;;;;;
2021/07/09 12:35:00;;;;;;;1.4;1.1;;;;;;;;;;;;;
2021/07/09 12:37:25;;;;;;;1.9;1;;;;;;;;;;;;;
2021/07/09 12:39:51;;;;;;;1.3;1.1;;;;;;;;;;;;;
2021/07/09 12:42:22;;;;;;;2.1;1.2;;;;;;;;;;;;;
2021/07/09 12:44:41;;;;;;;1.4;1.1;;;;;;;;;;;;;
2021/07/09 12:47:07;;;;;;;2.5;1.2;;;;;;;;;;;;;
2021/07/09 12:49:32;;;;;;;1.9;1.2;;;;;;;;;;;;;
2021/07/09 12:51:58;;;;;;;1.2;1.1;;;;;;;;;;;;;
2021/07/09 12:54:24;;;;;;;1.2;1.1;;;;;;;;;;;;;
2021/07/09 12:56:50;;;;;;;1.4;1.3;;;;;;;;;;;;;
2021/07/09 12:59:14;;;;;;;1.2;1.1;;;;;;;;;;;;;
2021/07/09 13:01:40;;;;;;;4.3;1.3;;;;;;;;;;;;;
2021/07/09 13:04:05;;;;;;;1.3;1.2;;;;;;;;;;;;;
2021/07/09 13:06:31;;;;;;;1.6;1.4;;;;;;;;;;;;;
2021/07/09 13:08:56;;;;;;;1.7;1.2;;;;;;;;;;;;;
2021/07/09 13:11:21;;;;;;;2.3;1.2;;;;;;;;;;;;;
2021/07/09 13:13:46;;;;;;;1.8;1.5;;;;;;;;;;;;;
2021/07/09 13:16:11;;;;;;;1.4;1.3;;;;;;;;;;;;;
2021/07/09 13:18:37;;;;;;;1.5;1.3;;;;;;;;;;;;;
2021/07/09 13:21:02;;;;;;;1.6;1.5;;;;;;;;;;;;;
2021/07/09 13:23:28;;;;;;;1.4;1.2;;;;;;;;;;;;;
2021/07/09 13:25:53;;;;;;;1.3;1.1;;;;;;;;;;;;;
2021/07/09 13:28:21;;;;;;;1.7;1.3;;;;;;;;;;;;;
2021/07/09 13:30:45;;;;;;;1;1;;;;;;;;;;;;;
2021/07/09 13:33:09;;;;;;;1.4;1.3;;;;;;;;;;;;;
2021/07/09 13:35:37;;;;;;;2.6;1.4;;;;;;;;;;;;;
2021/07/09 13:38:02;;;;;;;1.4;1.1;;;;;;;;;;;;;
2021/07/09 13:40:27;;;;;;;1.3;1.2;;;;;;;;;;;;;
2021/07/09 13:42:52;;;;;;;1.3;1.2;;;;;;;;;;;;;
2021/07/09 13:45:17;;;;;;;1.6;1.2;;;;;;;;;;;;;
2021/07/09 13:47:42;;;;;;;1.3;0.9;;;;;;;;;;;;;
2021/07/09 13:50:11;;;;;;;1.3;1.2;;;;;;;;;;;;;
2021/07/09 13:52:34;;;;;;;2;1.2;;;;;;;;;;;;;
2021/07/09 13:55:01;;;;;;;3.4;1.2;;;;;;;;;;;;;
2021/07/09 13:57:25;;;;;;;1.3;1.2;;;;;;;;;;;;;
2021/07/09 13:59:50;;;;;;;4.4;1.5;;;;;;;;;;;;;
2021/07/09 14:02:15;;;;;;;2.5;1.4;;;;;;;;;;;;;
2021/07/09 14:04:42;;;;;;;2.2;1.5;;;;;;;;;;;;;
2021/07/09 14:07:07;;;;;;;1.5;1.1;;;;;;;;;;;;;
2021/07/09 14:09:34;;;;;;;5.6;1.8;;;;;;;;;;;;;
2021/07/09 14:11:58;;;;;;;2.3;1.4;;;;;;;;;;;;;
2021/07/09 14:14:25;;;;;;;1.4;1.2;;;;;;;;;;;;;
2021/07/09 14:16:50;;;;;;;1.3;1.2;;;;;;;;;;;;;
2021/07/09 14:19:15;;;;;;;3.3;1.4;;;;;;;;;;;;;
2021/07/09 14:21:41;;;;;;;1.4;1.3;;;;;;;;;;;;;
2021/07/09 14:24:07;;;;;;;1.8;1.4;;;;;;;;;;;;;
2021/07/09 14:26:32;;;;;;;2.9;1.5;;;;;;;;;;;;;
2021/07/09 14:28:58;;;;;;;1.6;1.4;;;;;;;;;;;;;
2021/07/09 14:31:23;;;;;;;2.7;1.4;;;;;;;;;;;;;
2021/07/09 14:33:50;;;;;;;1.6;1.3;;;;;;;;;;;;;
2021/07/09 14:36:15;;;;;;;1.8;1.4;;;;;;;;;;;;;
2021/07/09 14:38:41;;;;;;;2.8;1.4;;;;;;;;;;;;;
2021/07/09 14:41:06;;;;;;;1.9;1.3;;;;;;;;;;;;;
2021/07/09 14:43:32;;;;;;;1.2;1.1;;;;;;;;;;;;;
2021/07/09 14:45:56;;;;;;;1.8;1.2;;;;;;;;;;;;;
2021/07/09 14:48:22;;;;;;;1.5;1.4;;;;;;;;;;;;;
2021/07/09 14:50:47;;;;;;;1.4;1.3;;;;;;;;;;;;;
2021/07/09 14:53:14;;;;;;;1.5;1.4;;;;;;;;;;;;;
2021/07/09 14:55:39;;;;;;;1.7;1.6;;;;;;;;;;;;;
2021/07/09 14:58:05;;;;;;;1.9;1.3;;;;;;;;;;;;;
2021/07/09 15:00:30;;;;;;;2;1.4;;;;;;;;;;;;;
2021/07/09 15:02:57;;;;;;;1.8;1.3;;;;;;;;;;;;;
2021/07/09 15:05:21;;;;;;;1.4;1.3;;;;;;;;;;;;;
2021/07/09 15:07:47;;;;;;;1.6;1.3;;;;;;;;;;;;;
2021/07/09 15:10:12;;;;;;;1.4;1.3;;;;;;;;;;;;;
2021/07/09 15:12:39;;;;;;;1.5;1.4;;;;;;;;;;;;;
2021/07/09 15:15:04;;;;;;;1.4;1.3;;;;;;;;;;;;;
2021/07/09 15:17:30;;;;;;;2.2;1.5;;;;;;;;;;;;;
2021/07/09 15:20:10;;;;;;;1.3;1.2;;;;;;;;;;;;;
2021/07/09 15:22:36;;;;;;;1.5;1.3;;;;;;;;;;;;;
2021/07/09 15:25:01;;;;;;;1.8;1.3;;;;;;;;;;;;;
2021/07/09 15:27:28;;;;;;;2.7;1.7;;;;;;;;;;;;;
2021/07/09 15:29:53;;;;;;;1.8;1.6;;;;;;;;;;;;;
2021/07/09 15:32:18;;;;;;;3.5;1.3;;;;;;;;;;;;;
2021/07/09 15:34:44;;;;;;;2.6;1.5;;;;;;;;;;;;;
2021/07/09 15:37:23;;;;;;;1.5;1.4;;;;;;;;;;;;;
2021/07/09 15:39:48;;;;;;;1.9;1.3;;;;;;;;;;;;;
2021/07/09 15:42:13;;;;;;;3.5;1.4;;;;;;;;;;;;;
2021/07/09 15:44:38;;;;;;;1.6;1.4;;;;;;;;;;;;;
2021/07/09 15:47:03;;;;;;;2;1.4;;;;;;;;;;;;;
2021/07/09 15:49:31;;;;;;;2.9;1.5;;;;;;;;;;;;;
2021/07/09 15:52:09;;;;;;;1.9;1.4;;;;;;;;;;;;;
2021/07/09 15:54:34;;;;;;;3.1;1.7;;;;;;;;;;;;;
2021/07/09 15:57:00;;;;;;;1.6;1.4;;;;;;;;;;;;;
2021/07/09 15:59:44;;;;;;;2.5;1.6;;;;;;;;;;;;;
2021/07/09 16:04:28;;;;;;;2.2;1.4;;;;;;;;;;;;;
2021/07/09 16:06:53;;;;;;;1.6;1.5;;;;;;;;;;;;;
2021/07/09 16:09:19;;;;;;;1.5;1.4;;;;;;;;;;;;;
2021/07/09 16:11:45;;;;;;;2.7;1.5;;;;;;;;;;;;;
2021/07/09 16:14:09;;;;;;;1.6;1.5;;;;;;;;;;;;;
2021/07/09 16:16:38;;;;;;;1.8;1.5;;;;;;;;;;;;;
2021/07/09 16:19:03;;;;;;;1.5;1.4;;;;;;;;;;;;;
2021/07/09 16:21:31;;;;;;;2.9;1.4;;;;;;;;;;;;;
2021/07/09 16:23:53;;;;;;;1.7;1.6;;;;;;;;;;;;;
2021/07/09 16:26:19;;;;;;;2.4;1.6;;;;;;;;;;;;;
2021/07/09 16:29:00;;;;;;;4.1;1.9;;;;;;;;;;;;;
2021/07/09 16:31:28;;;;;;;3.9;1.8;;;;;;;;;;;;;
2021/07/09 16:33:51;;;;;;;1.9;1.7;;;;;;;;;;;;;
2021/07/09 16:36:16;;;;;;;2;1.8;;;;;;;;;;;;;
2021/07/09 16:38:41;;;;;;;3.3;1.9;;;;;;;;;;;;;
2021/07/09 16:41:06;;;;;;;1.8;1.7;;;;;;;;;;;;;
2021/07/09 16:43:32;;;;;;;3.8;1.9;;;;;;;;;;;;;
2021/07/09 16:45:57;;;;;;;1.6;1.5;;;;;;;;;;;;;
2021/07/09 16:48:22;;;;;;;3.5;1.9;;;;;;;;;;;;;
2021/07/09 16:50:47;;;;;;;2.9;2.5;;;;;;;;;;;;;
2021/07/09 16:53:12;;;;;;;3.4;2.8;;;;;;;;;;;;;
2021/07/09 16:55:39;;;;;;;3.1;2.6;;;;;;;;;;;;;
2021/07/09 16:58:04;;;;;;;3.2;1.9;;;;;;;;;;;;;
2021/07/09 17:00:29;;;;;;;2;1.6;;;;;;;;;;;;;
2021/07/09 17:02:54;;;;;;;2.3;1.6;;;;;;;;;;;;;
2021/07/09 17:05:20;;;;;;;1.9;1.7;;;;;;;;;;;;;
2021/07/09 17:07:45;;;;;;;3.1;1.7;;;;;;;;;;;;;
2021/07/09 17:10:12;;;;;;;2.1;1.7;;;;;;;;;;;;;
2021/07/09 17:12:38;;;;;;;2.4;1.6;;;;;;;;;;;;;
2021/07/09 17:15:02;;;;;;;2.2;1.8;;;;;;;;;;;;;
2021/07/09 17:17:27;;;;;;;2.2;2;;;;;;;;;;;;;
2021/07/09 17:19:54;;;;;;;2.6;2.1;;;;;;;;;;;;;
2021/07/09 17:22:19;;;;;;;3.3;1.8;;;;;;;;;;;;;
2021/07/09 17:24:47;;;;;;;3.2;1.9;;;;;;;;;;;;;
2021/07/09 17:27:13;;;;;;;3.1;2.3;;;;;;;;;;;;;
2021/07/09 17:29:38;;;;;;;6.9;3.6;;;;;;;;;;;;;
2021/07/09 17:32:03;;;;;;;3.8;2.2;;;;;;;;;;;;;
2021/07/09 17:34:28;;;;;;;3;2;;;;;;;;;;;;;
2021/07/09 17:36:54;;;;;;;3.9;2.3;;;;;;;;;;;;;
2021/07/09 17:39:19;;;;;;;2.1;1.9;;;;;;;;;;;;;
2021/07/09 17:41:44;;;;;;;4.1;2;;;;;;;;;;;;;
2021/07/09 17:44:09;;;;;;;2.9;2;;;;;;;;;;;;;
2021/07/09 17:46:34;;;;;;;3.2;2.1;;;;;;;;;;;;;
2021/07/09 17:49:01;;;;;;;2.5;2.1;;;;;;;;;;;;;
2021/07/09 17:51:25;;;;;;;2.3;1.9;;;;;;;;;;;;;
2021/07/09 17:53:52;;;;;;;2.4;2.2;;;;;;;;;;;;;
2021/07/09 17:56:17;;;;;;;4.1;2.5;;;;;;;;;;;;;
2021/07/09 17:58:43;;;;;;;3.7;2.5;;;;;;;;;;;;;
2021/07/09 18:01:08;;;;;;;3.2;2.5;;;;;;;;;;;;;
2021/07/09 18:03:33;;;;;;;5.4;2.5;;;;;;;;;;;;;
2021/07/09 18:05:58;;;;;;;4.1;2.5;;;;;;;;;;;;;
2021/07/09 18:08:24;;;;;;;2.8;2.5;;;;;;;;;;;;;
2021/07/09 18:10:49;;;;;;;3.8;2.6;;;;;;;;;;;;;
2021/07/09 18:13:16;;;;;;;3.7;2.9;;;;;;;;;;;;;
2021/07/09 18:15:41;;;;;;;3.1;2.8;;;;;;;;;;;;;
2021/07/09 18:18:07;;;;;;;5.1;3;;;;;;;;;;;;;
2021/07/09 18:20:33;;;;;;;3.9;2.7;;;;;;;;;;;;;
2021/07/09 18:22:59;;;;;;;4.3;2.4;;;;;;;;;;;;;
2021/07/09 18:25:24;;;;;;;2.9;2.5;;;;;;;;;;;;;
2021/07/09 18:27:50;;;;;;;6.7;2.7;;;;;;;;;;;;;
2021/07/09 18:30:16;;;;;;;4;2.9;;;;;;;;;;;;;
2021/07/09 18:32:41;;;;;;;6.2;3;;;;;;;;;;;;;
2021/07/09 18:35:06;;;;;;;5.2;2.7;;;;;;;;;;;;;
2021/07/09 18:37:32;;;;;;;3;2.6;;;;;;;;;;;;;
2021/07/09 18:39:57;;;;;;;3.2;2.9;;;;;;;;;;;;;
2021/07/09 18:42:22;;;;;;;4;3.3;;;;;;;;;;;;;
2021/07/09 18:44:48;;;;;;;5.1;4.3;;;;;;;;;;;;;
2021/07/09 18:47:13;;;;;;;4.4;3.4;;;;;;;;;;;;;
2021/07/09 18:49:38;;;;;;;3.9;3.4;;;;;;;;;;;;;
2021/07/09 18:52:06;;;;;;;5.6;3.4;;;;;;;;;;;;;
2021/07/09 18:54:30;;;;;;;3.5;3.2;;;;;;;;;;;;;
2021/07/09 18:56:56;;;;;;;5.7;3.6;;;;;;;;;;;;;
2021/07/09 18:59:21;;;;;;;4.3;3.6;;;;;;;;;;;;;
2021/07/09 19:01:47;;;;;;;4.2;3.2;;;;;;;;;;;;;